sensor_id;sensor_type;location;lat;lon;timestamp;P1;durP1;ratioP1;P2;durP2;ratioP2
2542;SDS011;1116;51.502;7.414;2022-07-09T00:01:37;9.47;;;3.23;;
2542;SDS011;1116;51.502;7.414;2022-07-09T00:04:08;8.70;;;3.13;;
2542;SDS011;1116;51.502;7.414;2022-07-09T00:06:37;6.77;;;2.70;;
2542;SDS011;1116;51.502;7.414;2022-07-09T00:09:09;7.67;;;3.17;;
2542;SDS011;1116;51.502;7.414;2022-07-09T00:11:42;7.87;;;3.40;;
2542;SDS011;1116;51.502;7.414;2022-07-09T00:14:17;8.10;;;3.10;;
2542;SDS011;1116;51.502;7.414;2022-07-09T00:16:46;9.50;;;3.13;;
2542;SDS011;1116;51.502;7.414;2022-07-09T00:19:17;7.07;;;3.10;;
2542;SDS011;1116;51.502;7.414;2022-07-09T00:21:46;8.03;;;3.10;;
2542;SDS011;1116;51.502;7.414;2022-07-09T00:24:16;9.33;;;3.17;;
2542;SDS011;1116;51.502;7.414;2022-07-09T00:26:45;9.20;;;3.70;;
2542;SDS011;1116;51.502;7.414;2022-07-09T00:29:16;7.70;;;3.37;;
2542;SDS011;1116;51.502;7.414;2022-07-09T00:31:45;7.50;;;3.40;;
2542;SDS011;1116;51.502;7.414;2022-07-09T00:34:14;10.60;;;3.70;;
2542;SDS011;1116;51.502;7.414;2022-07-09T00:36:45;7.40;;;3.17;;
2542;SDS011;1116;51.502;7.414;2022-07-09T00:39:14;10.37;;;4.23;;
2542;SDS011;1116;51.502;7.414;2022-07-09T00:41:43;7.97;;;3.13;;
2542;SDS011;1116;51.502;7.414;2022-07-09T00:44:15;8.20;;;2.83;;
2542;SDS011;1116;51.502;7.414;2022-07-09T00:46:45;8.27;;;3.37;;
2542;SDS011;1116;51.502;7.414;2022-07-09T00:49:14;9.00;;;3.60;;
2542;SDS011;1116;51.502;7.414;2022-07-09T00:51:47;9.17;;;3.90;;
2542;SDS011;1116;51.502;7.414;2022-07-09T00:54:16;8.23;;;3.60;;
2542;SDS011;1116;51.502;7.414;2022-07-09T00:56:46;8.60;;;3.80;;
2542;SDS011;1116;51.502;7.414;2022-07-09T00:59:15;8.43;;;3.20;;
2542;SDS011;1116;51.502;7.414;2022-07-09T01:01:45;12.10;;;3.63;;
2542;SDS011;1116;51.502;7.414;2022-07-09T01:04:14;8.90;;;3.80;;
2542;SDS011;1116;51.502;7.414;2022-07-09T01:06:44;10.13;;;3.23;;
2542;SDS011;1116;51.502;7.414;2022-07-09T01:09:15;8.80;;;3.67;;
2542;SDS011;1116;51.502;7.414;2022-07-09T01:11:45;13.63;;;3.43;;
2542;SDS011;1116;51.502;7.414;2022-07-09T01:14:15;8.57;;;2.87;;
2542;SDS011;1116;51.502;7.414;2022-07-09T01:16:55;10.63;;;3.50;;
2542;SDS011;1116;51.502;7.414;2022-07-09T01:19:29;9.50;;;3.40;;
2542;SDS011;1116;51.502;7.414;2022-07-09T01:22:00;11.03;;;3.60;;
2542;SDS011;1116;51.502;7.414;2022-07-09T01:24:33;8.20;;;3.73;;
2542;SDS011;1116;51.502;7.414;2022-07-09T01:27:06;9.97;;;4.07;;
2542;SDS011;1116;51.502;7.414;2022-07-09T01:29:36;9.90;;;3.30;;
2542;SDS011;1116;51.502;7.414;2022-07-09T01:32:08;9.43;;;3.80;;
2542;SDS011;1116;51.502;7.414;2022-07-09T01:34:37;7.50;;;3.17;;
2542;SDS011;1116;51.502;7.414;2022-07-09T01:37:07;7.87;;;3.53;;
2542;SDS011;1116;51.502;7.414;2022-07-09T01:39:36;9.60;;;3.50;;
2542;SDS011;1116;51.502;7.414;2022-07-09T01:42:17;11.87;;;3.50;;
2542;SDS011;1116;51.502;7.414;2022-07-09T01:44:46;8.67;;;3.90;;
2542;SDS011;1116;51.502;7.414;2022-07-09T01:47:16;8.03;;;3.40;;
2542;SDS011;1116;51.502;7.414;2022-07-09T01:49:45;7.30;;;2.77;;
2542;SDS011;1116;51.502;7.414;2022-07-09T01:52:15;7.30;;;3.23;;
2542;SDS011;1116;51.502;7.414;2022-07-09T01:54:44;10.47;;;4.27;;
2542;SDS011;1116;51.502;7.414;2022-07-09T01:57:13;7.93;;;3.37;;
2542;SDS011;1116;51.502;7.414;2022-07-09T01:59:42;8.20;;;3.40;;
2542;SDS011;1116;51.502;7.414;2022-07-09T02:02:11;9.43;;;3.40;;
2542;SDS011;1116;51.502;7.414;2022-07-09T02:04:41;7.77;;;3.50;;
2542;SDS011;1116;51.502;7.414;2022-07-09T02:07:10;10.47;;;3.60;;
2542;SDS011;1116;51.502;7.414;2022-07-09T02:09:40;11.70;;;3.47;;
2542;SDS011;1116;51.502;7.414;2022-07-09T02:12:10;10.07;;;4.13;;
2542;SDS011;1116;51.502;7.414;2022-07-09T02:14:39;7.43;;;3.37;;
2542;SDS011;1116;51.502;7.414;2022-07-09T02:17:08;8.60;;;3.20;;
2542;SDS011;1116;51.502;7.414;2022-07-09T02:19:37;9.27;;;3.60;;
2542;SDS011;1116;51.502;7.414;2022-07-09T02:22:06;10.50;;;3.90;;
2542;SDS011;1116;51.502;7.414;2022-07-09T02:24:35;8.27;;;3.63;;
2542;SDS011;1116;51.502;7.414;2022-07-09T02:27:06;8.20;;;3.70;;
2542;SDS011;1116;51.502;7.414;2022-07-09T02:29:35;7.50;;;3.17;;
2542;SDS011;1116;51.502;7.414;2022-07-09T02:32:04;8.70;;;4.23;;
2542;SDS011;1116;51.502;7.414;2022-07-09T02:34:34;9.60;;;4.00;;
2542;SDS011;1116;51.502;7.414;2022-07-09T02:37:03;9.77;;;4.47;;
2542;SDS011;1116;51.502;7.414;2022-07-09T02:39:32;8.73;;;3.80;;
2542;SDS011;1116;51.502;7.414;2022-07-09T02:42:02;8.00;;;3.17;;
2542;SDS011;1116;51.502;7.414;2022-07-09T02:44:32;9.20;;;3.83;;
2542;SDS011;1116;51.502;7.414;2022-07-09T02:47:01;11.73;;;4.00;;
2542;SDS011;1116;51.502;7.414;2022-07-09T02:49:31;8.33;;;3.37;;
2542;SDS011;1116;51.502;7.414;2022-07-09T02:52:00;9.43;;;4.00;;
2542;SDS011;1116;51.502;7.414;2022-07-09T02:54:29;9.67;;;4.10;;
2542;SDS011;1116;51.502;7.414;2022-07-09T02:56:59;10.47;;;4.33;;
2542;SDS011;1116;51.502;7.414;2022-07-09T02:59:28;10.43;;;3.83;;
2542;SDS011;1116;51.502;7.414;2022-07-09T03:01:58;8.13;;;3.87;;
2542;SDS011;1116;51.502;7.414;2022-07-09T03:04:28;14.23;;;4.27;;
2542;SDS011;1116;51.502;7.414;2022-07-09T03:06:57;8.40;;;3.70;;
2542;SDS011;1116;51.502;7.414;2022-07-09T03:09:26;11.07;;;4.23;;
2542;SDS011;1116;51.502;7.414;2022-07-09T03:11:56;10.43;;;4.50;;
2542;SDS011;1116;51.502;7.414;2022-07-09T03:14:25;9.40;;;4.00;;
2542;SDS011;1116;51.502;7.414;2022-07-09T03:16:54;10.00;;;4.23;;
2542;SDS011;1116;51.502;7.414;2022-07-09T03:19:24;9.73;;;3.93;;
2542;SDS011;1116;51.502;7.414;2022-07-09T03:21:53;8.70;;;3.90;;
2542;SDS011;1116;51.502;7.414;2022-07-09T03:24:22;9.70;;;4.10;;
2542;SDS011;1116;51.502;7.414;2022-07-09T03:26:52;9.50;;;4.13;;
2542;SDS011;1116;51.502;7.414;2022-07-09T03:29:21;9.90;;;3.67;;
2542;SDS011;1116;51.502;7.414;2022-07-09T03:31:50;10.70;;;4.67;;
2542;SDS011;1116;51.502;7.414;2022-07-09T03:34:19;13.57;;;4.37;;
2542;SDS011;1116;51.502;7.414;2022-07-09T03:36:49;9.03;;;4.30;;
2542;SDS011;1116;51.502;7.414;2022-07-09T03:39:18;9.50;;;3.90;;
2542;SDS011;1116;51.502;7.414;2022-07-09T03:41:47;7.33;;;3.43;;
2542;SDS011;1116;51.502;7.414;2022-07-09T03:44:16;11.73;;;5.20;;
2542;SDS011;1116;51.502;7.414;2022-07-09T03:46:45;11.43;;;4.87;;
2542;SDS011;1116;51.502;7.414;2022-07-09T03:49:14;12.03;;;4.63;;
2542;SDS011;1116;51.502;7.414;2022-07-09T03:51:43;9.30;;;4.60;;
2542;SDS011;1116;51.502;7.414;2022-07-09T03:54:34;11.40;;;5.40;;
2542;SDS011;1116;51.502;7.414;2022-07-09T03:57:03;12.20;;;4.60;;
2542;SDS011;1116;51.502;7.414;2022-07-09T03:59:33;8.90;;;4.30;;
2542;SDS011;1116;51.502;7.414;2022-07-09T04:02:02;11.07;;;5.23;;
2542;SDS011;1116;51.502;7.414;2022-07-09T04:04:38;10.90;;;5.30;;
2542;SDS011;1116;51.502;7.414;2022-07-09T04:07:08;11.13;;;4.70;;
2542;SDS011;1116;51.502;7.414;2022-07-09T04:09:38;10.63;;;5.00;;
2542;SDS011;1116;51.502;7.414;2022-07-09T04:12:08;12.33;;;4.70;;
2542;SDS011;1116;51.502;7.414;2022-07-09T04:14:37;10.27;;;4.90;;
2542;SDS011;1116;51.502;7.414;2022-07-09T04:17:06;11.83;;;4.70;;
2542;SDS011;1116;51.502;7.414;2022-07-09T04:19:35;12.60;;;4.80;;
2542;SDS011;1116;51.502;7.414;2022-07-09T04:22:05;10.60;;;4.90;;
2542;SDS011;1116;51.502;7.414;2022-07-09T04:24:34;14.03;;;5.17;;
2542;SDS011;1116;51.502;7.414;2022-07-09T04:27:04;13.00;;;4.87;;
2542;SDS011;1116;51.502;7.414;2022-07-09T04:29:34;12.33;;;4.83;;
2542;SDS011;1116;51.502;7.414;2022-07-09T04:32:03;10.13;;;4.40;;
2542;SDS011;1116;51.502;7.414;2022-07-09T04:34:33;15.47;;;5.53;;
2542;SDS011;1116;51.502;7.414;2022-07-09T04:37:02;9.37;;;4.23;;
2542;SDS011;1116;51.502;7.414;2022-07-09T04:39:31;10.83;;;4.13;;
2542;SDS011;1116;51.502;7.414;2022-07-09T04:42:00;10.43;;;5.40;;
2542;SDS011;1116;51.502;7.414;2022-07-09T04:44:31;10.20;;;4.23;;
2542;SDS011;1116;51.502;7.414;2022-07-09T04:47:00;9.13;;;3.90;;
2542;SDS011;1116;51.502;7.414;2022-07-09T04:49:29;9.70;;;4.27;;
2542;SDS011;1116;51.502;7.414;2022-07-09T04:52:04;10.40;;;4.37;;
2542;SDS011;1116;51.502;7.414;2022-07-09T04:54:34;13.30;;;4.60;;
2542;SDS011;1116;51.502;7.414;2022-07-09T04:57:03;13.53;;;4.33;;
2542;SDS011;1116;51.502;7.414;2022-07-09T04:59:34;9.40;;;4.23;;
2542;SDS011;1116;51.502;7.414;2022-07-09T05:02:04;12.30;;;4.93;;
2542;SDS011;1116;51.502;7.414;2022-07-09T05:04:33;9.00;;;3.67;;
2542;SDS011;1116;51.502;7.414;2022-07-09T05:07:02;11.00;;;4.43;;
2542;SDS011;1116;51.502;7.414;2022-07-09T05:09:32;10.20;;;4.03;;
2542;SDS011;1116;51.502;7.414;2022-07-09T05:12:02;11.97;;;4.27;;
2542;SDS011;1116;51.502;7.414;2022-07-09T05:14:31;8.33;;;4.00;;
2542;SDS011;1116;51.502;7.414;2022-07-09T05:17:01;7.90;;;3.57;;
2542;SDS011;1116;51.502;7.414;2022-07-09T05:19:31;9.47;;;3.77;;
2542;SDS011;1116;51.502;7.414;2022-07-09T05:22:00;10.57;;;4.23;;
2542;SDS011;1116;51.502;7.414;2022-07-09T05:24:29;8.90;;;4.03;;
2542;SDS011;1116;51.502;7.414;2022-07-09T05:26:58;8.83;;;3.60;;
2542;SDS011;1116;51.502;7.414;2022-07-09T05:29:27;9.47;;;3.70;;
2542;SDS011;1116;51.502;7.414;2022-07-09T05:31:56;10.10;;;3.87;;
2542;SDS011;1116;51.502;7.414;2022-07-09T05:34:27;14.20;;;4.00;;
2542;SDS011;1116;51.502;7.414;2022-07-09T05:36:56;10.83;;;4.47;;
2542;SDS011;1116;51.502;7.414;2022-07-09T05:39:25;11.67;;;3.90;;
2542;SDS011;1116;51.502;7.414;2022-07-09T05:41:54;10.27;;;4.20;;
2542;SDS011;1116;51.502;7.414;2022-07-09T05:44:24;12.67;;;3.50;;
2542;SDS011;1116;51.502;7.414;2022-07-09T05:46:53;9.07;;;4.07;;
2542;SDS011;1116;51.502;7.414;2022-07-09T05:49:22;9.70;;;3.50;;
2542;SDS011;1116;51.502;7.414;2022-07-09T05:51:52;8.70;;;3.27;;
2542;SDS011;1116;51.502;7.414;2022-07-09T05:54:21;7.03;;;2.60;;
2542;SDS011;1116;51.502;7.414;2022-07-09T05:56:51;8.70;;;2.90;;
2542;SDS011;1116;51.502;7.414;2022-07-09T05:59:20;8.90;;;3.03;;
2542;SDS011;1116;51.502;7.414;2022-07-09T06:01:49;7.43;;;2.70;;
2542;SDS011;1116;51.502;7.414;2022-07-09T06:04:18;7.47;;;2.23;;
2542;SDS011;1116;51.502;7.414;2022-07-09T06:06:47;7.43;;;2.43;;
2542;SDS011;1116;51.502;7.414;2022-07-09T06:09:17;8.23;;;2.33;;
2542;SDS011;1116;51.502;7.414;2022-07-09T06:11:46;7.70;;;2.70;;
2542;SDS011;1116;51.502;7.414;2022-07-09T06:14:16;6.83;;;1.60;;
2542;SDS011;1116;51.502;7.414;2022-07-09T06:16:53;8.67;;;2.10;;
2542;SDS011;1116;51.502;7.414;2022-07-09T06:19:23;8.27;;;2.20;;
2542;SDS011;1116;51.502;7.414;2022-07-09T06:21:52;7.13;;;2.40;;
2542;SDS011;1116;51.502;7.414;2022-07-09T06:24:23;7.77;;;1.77;;
2542;SDS011;1116;51.502;7.414;2022-07-09T06:26:52;5.40;;;1.40;;
2542;SDS011;1116;51.502;7.414;2022-07-09T06:29:21;5.97;;;1.80;;
2542;SDS011;1116;51.502;7.414;2022-07-09T06:31:50;7.30;;;1.93;;
2542;SDS011;1116;51.502;7.414;2022-07-09T06:34:19;5.50;;;1.40;;
2542;SDS011;1116;51.502;7.414;2022-07-09T06:36:48;7.90;;;1.90;;
2542;SDS011;1116;51.502;7.414;2022-07-09T06:39:17;6.37;;;2.00;;
2542;SDS011;1116;51.502;7.414;2022-07-09T06:42:06;6.30;;;2.00;;
2542;SDS011;1116;51.502;7.414;2022-07-09T06:44:35;5.47;;;1.50;;
2542;SDS011;1116;51.502;7.414;2022-07-09T06:47:04;5.93;;;1.73;;
2542;SDS011;1116;51.502;7.414;2022-07-09T06:49:34;5.50;;;1.80;;
2542;SDS011;1116;51.502;7.414;2022-07-09T06:52:03;7.83;;;1.53;;
2542;SDS011;1116;51.502;7.414;2022-07-09T06:54:33;5.40;;;1.60;;
2542;SDS011;1116;51.502;7.414;2022-07-09T06:57:03;5.80;;;1.60;;
2542;SDS011;1116;51.502;7.414;2022-07-09T06:59:44;7.40;;;1.67;;
2542;SDS011;1116;51.502;7.414;2022-07-09T07:02:14;5.47;;;1.30;;
2542;SDS011;1116;51.502;7.414;2022-07-09T07:04:44;5.47;;;1.43;;
2542;SDS011;1116;51.502;7.414;2022-07-09T07:07:13;5.77;;;2.33;;
2542;SDS011;1116;51.502;7.414;2022-07-09T07:09:42;5.40;;;1.33;;
2542;SDS011;1116;51.502;7.414;2022-07-09T07:12:11;5.37;;;1.10;;
2542;SDS011;1116;51.502;7.414;2022-07-09T07:14:40;5.03;;;1.17;;
2542;SDS011;1116;51.502;7.414;2022-07-09T07:17:11;4.73;;;1.10;;
2542;SDS011;1116;51.502;7.414;2022-07-09T07:19:40;4.90;;;1.20;;
2542;SDS011;1116;51.502;7.414;2022-07-09T07:22:09;5.87;;;1.20;;
2542;SDS011;1116;51.502;7.414;2022-07-09T07:24:45;4.70;;;1.00;;
2542;SDS011;1116;51.502;7.414;2022-07-09T07:27:14;4.80;;;1.03;;
2542;SDS011;1116;51.502;7.414;2022-07-09T07:29:43;5.37;;;0.90;;
2542;SDS011;1116;51.502;7.414;2022-07-09T07:32:19;4.50;;;0.80;;
2542;SDS011;1116;51.502;7.414;2022-07-09T07:34:48;6.70;;;1.10;;
2542;SDS011;1116;51.502;7.414;2022-07-09T07:37:31;4.40;;;0.80;;
2542;SDS011;1116;51.502;7.414;2022-07-09T07:40:00;4.43;;;0.87;;
2542;SDS011;1116;51.502;7.414;2022-07-09T07:42:37;5.20;;;1.07;;
2542;SDS011;1116;51.502;7.414;2022-07-09T07:45:06;5.03;;;1.20;;
2542;SDS011;1116;51.502;7.414;2022-07-09T07:47:38;4.67;;;0.90;;
2542;SDS011;1116;51.502;7.414;2022-07-09T07:50:07;4.70;;;1.20;;
2542;SDS011;1116;51.502;7.414;2022-07-09T07:52:36;4.40;;;0.90;;
2542;SDS011;1116;51.502;7.414;2022-07-09T07:55:11;5.43;;;1.30;;
2542;SDS011;1116;51.502;7.414;2022-07-09T07:57:40;4.63;;;1.20;;
2542;SDS011;1116;51.502;7.414;2022-07-09T08:00:15;5.70;;;1.20;;
2542;SDS011;1116;51.502;7.414;2022-07-09T08:02:46;4.60;;;0.77;;
2542;SDS011;1116;51.502;7.414;2022-07-09T08:05:15;4.40;;;1.00;;
2542;SDS011;1116;51.502;7.414;2022-07-09T08:07:44;4.60;;;1.00;;
2542;SDS011;1116;51.502;7.414;2022-07-09T08:10:14;4.33;;;0.87;;
2542;SDS011;1116;51.502;7.414;2022-07-09T08:12:43;5.70;;;1.47;;
2542;SDS011;1116;51.502;7.414;2022-07-09T08:15:12;4.50;;;1.10;;
2542;SDS011;1116;51.502;7.414;2022-07-09T08:17:41;4.70;;;1.20;;
2542;SDS011;1116;51.502;7.414;2022-07-09T08:20:12;5.63;;;1.30;;
2542;SDS011;1116;51.502;7.414;2022-07-09T08:22:41;4.93;;;1.23;;
2542;SDS011;1116;51.502;7.414;2022-07-09T08:25:10;6.10;;;1.30;;
2542;SDS011;1116;51.502;7.414;2022-07-09T08:27:41;5.77;;;1.47;;
2542;SDS011;1116;51.502;7.414;2022-07-09T08:30:10;4.37;;;1.13;;
2542;SDS011;1116;51.502;7.414;2022-07-09T08:32:39;4.30;;;0.90;;
2542;SDS011;1116;51.502;7.414;2022-07-09T08:35:08;4.60;;;1.10;;
2542;SDS011;1116;51.502;7.414;2022-07-09T08:37:39;4.47;;;1.17;;
2542;SDS011;1116;51.502;7.414;2022-07-09T08:40:09;5.10;;;1.23;;
2542;SDS011;1116;51.502;7.414;2022-07-09T08:42:39;3.93;;;0.80;;
2542;SDS011;1116;51.502;7.414;2022-07-09T08:45:10;7.37;;;1.20;;
2542;SDS011;1116;51.502;7.414;2022-07-09T08:47:41;4.47;;;1.20;;
2542;SDS011;1116;51.502;7.414;2022-07-09T08:50:10;4.40;;;1.10;;
2542;SDS011;1116;51.502;7.414;2022-07-09T08:52:41;4.87;;;1.00;;
2542;SDS011;1116;51.502;7.414;2022-07-09T08:55:11;5.07;;;1.17;;
2542;SDS011;1116;51.502;7.414;2022-07-09T08:57:40;4.80;;;1.17;;
2542;SDS011;1116;51.502;7.414;2022-07-09T09:00:09;6.30;;;1.33;;
2542;SDS011;1116;51.502;7.414;2022-07-09T09:02:39;5.70;;;1.23;;
2542;SDS011;1116;51.502;7.414;2022-07-09T09:05:09;5.90;;;1.10;;
2542;SDS011;1116;51.502;7.414;2022-07-09T09:07:41;4.90;;;1.10;;
2542;SDS011;1116;51.502;7.414;2022-07-09T09:10:20;4.80;;;1.03;;
2542;SDS011;1116;51.502;7.414;2022-07-09T09:12:55;4.30;;;1.00;;
2542;SDS011;1116;51.502;7.414;2022-07-09T09:15:25;4.07;;;0.90;;
2542;SDS011;1116;51.502;7.414;2022-07-09T09:17:56;5.43;;;1.30;;
2542;SDS011;1116;51.502;7.414;2022-07-09T09:20:25;7.93;;;0.80;;
2542;SDS011;1116;51.502;7.414;2022-07-09T09:22:56;6.30;;;1.10;;
2542;SDS011;1116;51.502;7.414;2022-07-09T09:25:29;4.97;;;1.00;;
2542;SDS011;1116;51.502;7.414;2022-07-09T09:27:59;5.40;;;1.40;;
2542;SDS011;1116;51.502;7.414;2022-07-09T09:30:29;4.70;;;1.00;;
2542;SDS011;1116;51.502;7.414;2022-07-09T09:32:59;4.77;;;1.20;;
2542;SDS011;1116;51.502;7.414;2022-07-09T09:35:29;4.40;;;1.10;;
2542;SDS011;1116;51.502;7.414;2022-07-09T09:38:03;4.20;;;0.90;;
2542;SDS011;1116;51.502;7.414;2022-07-09T09:40:32;4.10;;;0.93;;
2542;SDS011;1116;51.502;7.414;2022-07-09T09:43:02;4.57;;;0.83;;
2542;SDS011;1116;51.502;7.414;2022-07-09T09:45:32;4.40;;;1.00;;
2542;SDS011;1116;51.502;7.414;2022-07-09T09:48:02;4.33;;;0.83;;
2542;SDS011;1116;51.502;7.414;2022-07-09T09:50:34;4.20;;;0.90;;
2542;SDS011;1116;51.502;7.414;2022-07-09T09:53:08;4.50;;;0.87;;
2542;SDS011;1116;51.502;7.414;2022-07-09T09:55:39;6.77;;;1.40;;
2542;SDS011;1116;51.502;7.414;2022-07-09T09:58:09;4.43;;;0.83;;
2542;SDS011;1116;51.502;7.414;2022-07-09T10:00:39;4.70;;;0.97;;
2542;SDS011;1116;51.502;7.414;2022-07-09T10:03:08;4.20;;;0.80;;
2542;SDS011;1116;51.502;7.414;2022-07-09T10:05:41;4.53;;;0.80;;
2542;SDS011;1116;51.502;7.414;2022-07-09T10:08:12;4.30;;;0.77;;
2542;SDS011;1116;51.502;7.414;2022-07-09T10:10:49;4.37;;;1.10;;
2542;SDS011;1116;51.502;7.414;2022-07-09T10:13:19;4.40;;;0.83;;
2542;SDS011;1116;51.502;7.414;2022-07-09T10:15:48;5.27;;;1.10;;
2542;SDS011;1116;51.502;7.414;2022-07-09T10:18:19;5.33;;;1.23;;
2542;SDS011;1116;51.502;7.414;2022-07-09T10:20:54;4.57;;;1.10;;
2542;SDS011;1116;51.502;7.414;2022-07-09T10:23:25;5.27;;;1.30;;
2542;SDS011;1116;51.502;7.414;2022-07-09T10:25:55;5.07;;;1.07;;
2542;SDS011;1116;51.502;7.414;2022-07-09T10:28:27;5.77;;;1.10;;
2542;SDS011;1116;51.502;7.414;2022-07-09T10:31:06;4.70;;;0.97;;
2542;SDS011;1116;51.502;7.414;2022-07-09T10:33:35;8.73;;;1.30;;
2542;SDS011;1116;51.502;7.414;2022-07-09T10:36:15;5.47;;;1.20;;
2542;SDS011;1116;51.502;7.414;2022-07-09T10:38:52;5.23;;;1.40;;
2542;SDS011;1116;51.502;7.414;2022-07-09T10:41:23;4.30;;;1.17;;
2542;SDS011;1116;51.502;7.414;2022-07-09T10:43:52;7.57;;;1.80;;
2542;SDS011;1116;51.502;7.414;2022-07-09T10:46:22;6.20;;;1.60;;
2542;SDS011;1116;51.502;7.414;2022-07-09T10:48:51;4.90;;;1.30;;
2542;SDS011;1116;51.502;7.414;2022-07-09T10:51:21;5.33;;;1.17;;
2542;SDS011;1116;51.502;7.414;2022-07-09T10:53:52;5.07;;;1.83;;
2542;SDS011;1116;51.502;7.414;2022-07-09T10:56:22;5.23;;;1.10;;
2542;SDS011;1116;51.502;7.414;2022-07-09T10:58:51;4.70;;;1.10;;
2542;SDS011;1116;51.502;7.414;2022-07-09T11:01:23;8.07;;;1.00;;
2542;SDS011;1116;51.502;7.414;2022-07-09T11:03:53;4.77;;;1.20;;
2542;SDS011;1116;51.502;7.414;2022-07-09T11:06:23;4.50;;;1.27;;
2542;SDS011;1116;51.502;7.414;2022-07-09T11:08:53;6.03;;;1.10;;
2542;SDS011;1116;51.502;7.414;2022-07-09T11:11:22;4.77;;;1.10;;
2542;SDS011;1116;51.502;7.414;2022-07-09T11:13:53;4.90;;;1.27;;
2542;SDS011;1116;51.502;7.414;2022-07-09T11:16:23;5.00;;;1.10;;
2542;SDS011;1116;51.502;7.414;2022-07-09T11:18:54;8.27;;;1.80;;
2542;SDS011;1116;51.502;7.414;2022-07-09T11:21:25;5.23;;;1.50;;
2542;SDS011;1116;51.502;7.414;2022-07-09T11:24:12;6.60;;;1.40;;
2542;SDS011;1116;51.502;7.414;2022-07-09T11:26:42;4.57;;;1.40;;
2542;SDS011;1116;51.502;7.414;2022-07-09T11:29:11;4.63;;;1.20;;
2542;SDS011;1116;51.502;7.414;2022-07-09T22:56:08;6.80;;;1.33;;
2542;SDS011;1116;51.502;7.414;2022-07-09T22:59:17;7.73;;;1.10;;
2542;SDS011;1116;51.502;7.414;2022-07-09T23:05:52;7.13;;;0.93;;
2542;SDS011;1116;51.502;7.414;2022-07-09T23:08:21;5.43;;;1.00;;
2542;SDS011;1116;51.502;7.414;2022-07-09T23:11:09;7.53;;;0.90;;
2542;SDS011;1116;51.502;7.414;2022-07-09T23:13:38;6.40;;;0.93;;
2542;SDS011;1116;51.502;7.414;2022-07-09T23:16:07;6.10;;;1.37;;
2542;SDS011;1116;51.502;7.414;2022-07-09T23:18:36;6.60;;;1.17;;
2542;SDS011;1116;51.502;7.414;2022-07-09T23:21:06;4.90;;;0.83;;
2542;SDS011;1116;51.502;7.414;2022-07-09T23:23:35;4.90;;;0.90;;
2542;SDS011;1116;51.502;7.414;2022-07-09T23:26:06;7.33;;;1.47;;
2542;SDS011;1116;51.502;7.414;2022-07-09T23:28:37;9.60;;;1.23;;
2542;SDS011;1116;51.502;7.414;2022-07-09T23:31:07;7.10;;;1.47;;
2542;SDS011;1116;51.502;7.414;2022-07-09T23:33:41;6.27;;;1.13;;
2542;SDS011;1116;51.502;7.414;2022-07-09T23:36:10;5.47;;;1.13;;
2542;SDS011;1116;51.502;7.414;2022-07-09T23:38:53;6.80;;;1.27;;
2542;SDS011;1116;51.502;7.414;2022-07-09T23:41:28;4.70;;;0.90;;
2542;SDS011;1116;51.502;7.414;2022-07-09T23:43:58;5.73;;;1.03;;
2542;SDS011;1116;51.502;7.414;2022-07-09T23:46:30;6.97;;;1.20;;
2542;SDS011;1116;51.502;7.414;2022-07-09T23:48:59;6.40;;;1.23;;
2542;SDS011;1116;51.502;7.414;2022-07-09T23:51:30;5.77;;;1.10;;
2542;SDS011;1116;51.502;7.414;2022-07-09T23:53:59;6.00;;;0.90;;
2542;SDS011;1116;51.502;7.414;2022-07-09T23:56:32;5.20;;;1.00;;
2542;SDS011;1116;51.502;7.414;2022-07-09T23:59:03;7.03;;;1.13;;
